Registration

All data are given in time UTC except for the places where it is expressly stated to the contrary, The data provided on this website are informative!!!


Actual Weather
 
General weather forecast

Storms are forecasted to occur over a large area with rain or hail.
podkTHUNDERSTORMS (st.1)Disturbances in the operation of electrical, electronical devices.Interference in radio and satellite communications.Difficulties in troops deployment (patched roads through broken branches and trees).Threat to life because of lightning.Possibility of damage to military equipment.Fire risk. Disturbances in the operation of radiolocation devices.High air temperature is forecasted with values from 25°C to 28°C.
dollubellubulodzmalmazopopodkslaswiwielzachHEAT (st.1)Increase of fire risk.Heatstress.
Weather - Poland
17°C Szczecin 16°C Suwałki 16°C Warszawa 17°C Poznan
18°C Opole 18°C Kraków 19°C Rzeszów
More cities in Poland

Weather - Europe
17°C Berlin 16°C Paryz 14°C Bruksela 13°C Oslo
16°C Praga 19°C Zagrzeb
More cities in Europe

METAR EPBC 170500Z 29005KT CAVOK 17/13 Q1020=
METAR EPCE 170500Z 28007KT CAVOK 15/12 Q1021 RMK 145 087 0/0=
METAR EPDA 170500Z 30004KT 240V340 CAVOK 16/14 Q1021 RMK 160 085 0/0=
METAR EPDE 170500Z 29006KT 9999 SCT017 BKN100 17/14 Q1020 RMK 171 080 6/4=
METAR EPIR 170500Z 31010KT CAVOK 16/11 Q1021 RMK 160 072 2/2=
METAR EPKS 170500Z 28003KT CAVOK 17/12 Q1022 RMK 168 073 2/2=
METAR EPLK 170500Z 32006KT 300V360 CAVOK 16/10 Q1022 RMK 164 068 2/2=
METAR EPLY 170500Z 27004KT CAVOK 16/11 Q1022 RMK 159 074 3/3=
METAR EPMB 170500Z 31009KT 9999 SCT050 16/13 Q1019 RMK 157 084 4/4=
METAR EPMI 170500Z 32004KT CAVOK 16/13 Q1023 RMK 156 085 0/0=
METAR EPMM 170500Z 31008KT 9999 FEW030 SCT100 BKN200 16/12 Q1020 RMK 163 078 6/2=
METAR EPNA 170500Z 28003KT CAVOK 19/14 Q1022 RMK 193 071 0/0=
METAR EPOK 170500Z 30012KT 9999 SCT081 16/13 Q1019 RMK 155 083 4/4=
METAR EPPR 170500Z 31012KT CAVOK 17/12 Q1019 RMK 171 072 2/2=
METAR EPPW 170500Z 29006KT CAVOK 16/11 Q1022 RMK 158 074 2/2=
METAR EPSN 170500Z 29002KT CAVOK 16/13 Q1022 RMK 156 087 0/0=
METAR EPTM 170500Z 30006KT CAVOK 16/12 Q1021 RMK 160 077 3/1=


 

Copyright©2007 HS-PAF All rights reserved.